Time;durP1;ratioP1;P1;durP2;ratioP2;P2;SDS_P1;SDS_P2;PMS_P1;PMS_P2;Temp;Humidity;BMP_temperature;BMP_pressure;BME280_temperature;BME280_humidity;BME280_pressure;Samples;Min_cycle;Max_cycle;Signal;HPM_P1;HPM_P2
2023/08/04 00:01:42;;;;;;;56.70;2.20;;;;;;;;;;5032188;28;20480;-71
2023/08/04 00:04:09;;;;;;;56.63;2.20;;;;;;;;;;5032115;28;21014;-71
2023/08/04 00:06:36;;;;;;;57.70;2.80;;;;;;;;;;5032200;28;20479;-71
2023/08/04 00:09:03;;;;;;;56.97;2.60;;;;;;;;;;5032426;28;20441;-71
2023/08/04 00:11:30;;;;;;;56.67;2.27;;;;;;;;;;5032499;28;20714;-71
2023/08/04 00:13:57;;;;;;;56.67;2.30;;;;;;;;;;5032223;28;20470;-70
2023/08/04 00:16:26;;;;;;;56.77;2.33;;;;;;;;;;5032183;28;20524;-71
2023/08/04 00:18:53;;;;;;;56.67;2.30;;;;;;;;;;5032033;28;20952;-71
2023/08/04 00:21:20;;;;;;;57.07;2.60;;;;;;;;;;5032311;28;20485;-70
2023/08/04 00:23:47;;;;;;;56.77;2.37;;;;;;;;;;5031841;28;20460;-71
2023/08/04 00:26:14;;;;;;;56.63;2.30;;;;;;;;;;5031571;28;20454;-70
2023/08/04 00:28:41;;;;;;;56.67;2.40;;;;;;;;;;5031821;28;20953;-71
2023/08/04 00:31:08;;;;;;;56.87;2.60;;;;;;;;;;5031843;28;20445;-70
2023/08/04 00:33:37;;;;;;;56.87;2.50;;;;;;;;;;5031640;28;20595;-71
2023/08/04 00:36:04;;;;;;;56.67;2.20;;;;;;;;;;5031819;28;20459;-71
2023/08/04 00:38:31;;;;;;;56.47;2.20;;;;;;;;;;5031742;28;20532;-71
2023/08/04 00:40:58;;;;;;;56.77;2.30;;;;;;;;;;5031858;28;20481;-70
2023/08/04 00:43:25;;;;;;;56.60;2.30;;;;;;;;;;5031528;28;20465;-71
2023/08/04 00:45:52;;;;;;;56.57;2.37;;;;;;;;;;5031558;28;20832;-70
2023/08/04 00:48:20;;;;;;;57.20;2.47;;;;;;;;;;5031761;28;20449;-70
2023/08/04 00:50:48;;;;;;;56.50;2.17;;;;;;;;;;5031683;28;20445;-70
2023/08/04 00:53:15;;;;;;;56.67;2.20;;;;;;;;;;5031374;28;20464;-71
2023/08/04 00:55:43;;;;;;;56.57;2.30;;;;;;;;;;5031628;28;20448;-71
2023/08/04 00:58:10;;;;;;;56.67;2.47;;;;;;;;;;5031526;28;20456;-71
2023/08/04 01:00:37;;;;;;;56.67;2.40;;;;;;;;;;5031284;28;20459;-70
2023/08/04 01:03:05;;;;;;;56.80;2.30;;;;;;;;;;5031474;28;20523;-71
2023/08/04 01:05:36;;;;;;;56.57;2.30;;;;;;;;;;5031510;28;20453;-71
2023/08/04 01:08:08;;;;;;;56.83;2.53;;;;;;;;;;5031648;28;20860;-70
2023/08/04 01:10:42;;;;;;;56.70;2.20;;;;;;;;;;5029624;28;20471;-70
2023/08/04 01:13:09;;;;;;;56.47;2.17;;;;;;;;;;5031121;28;20468;-71
2023/08/04 01:15:37;;;;;;;56.57;2.33;;;;;;;;;;5031225;28;20451;-71
2023/08/04 01:18:04;;;;;;;57.30;2.70;;;;;;;;;;5031483;28;20828;-71
2023/08/04 01:20:31;;;;;;;56.73;2.30;;;;;;;;;;5031003;28;20524;-71
2023/08/04 01:23:00;;;;;;;56.87;2.47;;;;;;;;;;5030790;28;20985;-71
2023/08/04 01:25:29;;;;;;;56.50;2.20;;;;;;;;;;5030960;28;20461;-71
2023/08/04 01:27:58;;;;;;;56.50;2.17;;;;;;;;;;5031483;28;20457;-70
2023/08/04 01:30:26;;;;;;;56.67;2.20;;;;;;;;;;5031093;28;20483;-71
2023/08/04 01:32:54;;;;;;;56.67;2.30;;;;;;;;;;5030859;28;20457;-70
2023/08/04 01:35:21;;;;;;;56.50;2.20;;;;;;;;;;5031268;28;20449;-71
2023/08/04 01:37:48;;;;;;;56.90;2.40;;;;;;;;;;5031608;28;20449;-69
2023/08/04 01:40:16;;;;;;;56.77;2.20;;;;;;;;;;5034380;28;20959;-71
2023/08/04 01:42:43;;;;;;;56.53;2.10;;;;;;;;;;5034836;28;20583;-71
2023/08/04 01:45:11;;;;;;;56.70;2.13;;;;;;;;;;5035356;28;20452;-70
2023/08/04 01:47:39;;;;;;;56.57;2.20;;;;;;;;;;5035310;28;20448;-69
2023/08/04 01:50:07;;;;;;;56.70;2.20;;;;;;;;;;5035688;28;20944;-71
2023/08/04 01:52:34;;;;;;;56.70;2.27;;;;;;;;;;5034888;28;20465;-70
2023/08/04 01:55:01;;;;;;;56.60;2.40;;;;;;;;;;5034940;28;20506;-71
2023/08/04 01:57:30;;;;;;;56.70;2.50;;;;;;;;;;5034514;28;20533;-70
2023/08/04 01:59:57;;;;;;;59.00;3.03;;;;;;;;;;5034727;28;20451;-71
2023/08/04 02:05:27;;;;;;;56.67;2.30;;;;;;;;;;5032927;28;20392;-71
2023/08/04 02:07:54;;;;;;;56.80;2.30;;;;;;;;;;5034357;28;20948;-71
2023/08/04 02:10:21;;;;;;;56.53;2.30;;;;;;;;;;5034253;28;20970;-70
2023/08/04 02:12:50;;;;;;;56.57;2.20;;;;;;;;;;5034839;28;20464;-71
2023/08/04 02:15:17;;;;;;;56.57;2.30;;;;;;;;;;5034300;28;20449;-68
2023/08/04 02:17:44;;;;;;;56.57;2.23;;;;;;;;;;5034538;28;20451;-71
2023/08/04 02:20:11;;;;;;;56.60;2.30;;;;;;;;;;5034805;28;20445;-70
2023/08/04 02:22:38;;;;;;;56.70;2.20;;;;;;;;;;5034116;28;20499;-71
2023/08/04 02:25:06;;;;;;;56.77;2.20;;;;;;;;;;5034325;28;20583;-70
2023/08/04 02:27:33;;;;;;;56.43;2.10;;;;;;;;;;5034458;28;20453;-71
2023/08/04 02:30:02;;;;;;;56.57;2.00;;;;;;;;;;5035429;28;20441;-71
2023/08/04 02:32:29;;;;;;;56.50;2.10;;;;;;;;;;5034788;28;21027;-71
2023/08/04 02:34:56;;;;;;;56.57;2.10;;;;;;;;;;5035014;28;20820;-71
2023/08/04 02:37:23;;;;;;;56.77;2.17;;;;;;;;;;5034792;28;20450;-71
2023/08/04 02:39:50;;;;;;;56.57;2.10;;;;;;;;;;5033895;28;20449;-70
2023/08/04 02:42:17;;;;;;;56.37;2.00;;;;;;;;;;5032937;28;21015;-70
2023/08/04 02:44:43;;;;;;;56.77;2.30;;;;;;;;;;5033763;28;20449;-71
2023/08/04 02:47:11;;;;;;;56.57;2.10;;;;;;;;;;5034420;28;20460;-70
2023/08/04 02:49:38;;;;;;;56.57;2.10;;;;;;;;;;5034471;28;20450;-70
2023/08/04 02:52:06;;;;;;;56.40;2.17;;;;;;;;;;5034406;28;20441;-69
2023/08/04 02:54:33;;;;;;;56.57;2.10;;;;;;;;;;5034727;28;20464;-71
2023/08/04 02:57:00;;;;;;;56.60;2.07;;;;;;;;;;5035035;28;20451;-71
2023/08/04 02:59:27;;;;;;;56.70;2.20;;;;;;;;;;5034816;28;20455;-71
2023/08/04 03:01:54;;;;;;;56.60;2.23;;;;;;;;;;5034421;28;20485;-71
2023/08/04 03:04:22;;;;;;;56.33;2.07;;;;;;;;;;5034806;28;20457;-71
2023/08/04 03:06:49;;;;;;;56.40;1.90;;;;;;;;;;5034479;28;20452;-71
2023/08/04 03:09:17;;;;;;;56.47;2.20;;;;;;;;;;5034179;28;20452;-71
2023/08/04 03:11:44;;;;;;;56.47;2.30;;;;;;;;;;5034593;28;20456;-71
2023/08/04 03:14:11;;;;;;;56.77;2.47;;;;;;;;;;5034506;28;20465;-71
2023/08/04 03:16:38;;;;;;;56.53;2.20;;;;;;;;;;5034703;28;20499;-71
2023/08/04 03:19:05;;;;;;;56.80;2.40;;;;;;;;;;5035065;28;20449;-71
2023/08/04 03:21:35;;;;;;;56.70;2.20;;;;;;;;;;5034686;28;21020;-69
2023/08/04 03:24:02;;;;;;;56.33;2.13;;;;;;;;;;5034996;28;20486;-71
2023/08/04 03:26:29;;;;;;;56.60;2.10;;;;;;;;;;5034999;28;20465;-71
2023/08/04 03:28:56;;;;;;;56.33;2.10;;;;;;;;;;5035509;28;20456;-71
2023/08/04 03:31:24;;;;;;;56.37;2.27;;;;;;;;;;5035644;28;20452;-71
2023/08/04 03:33:51;;;;;;;56.90;2.50;;;;;;;;;;5035423;28;20468;-70
2023/08/04 03:36:18;;;;;;;56.40;2.03;;;;;;;;;;5035346;28;20445;-71
2023/08/04 03:38:46;;;;;;;56.40;2.10;;;;;;;;;;5035970;28;20453;-70
2023/08/04 03:41:13;;;;;;;56.57;2.30;;;;;;;;;;5035315;28;20449;-71
2023/08/04 03:43:40;;;;;;;56.37;2.10;;;;;;;;;;5034566;28;20514;-71
2023/08/04 03:46:07;;;;;;;56.70;2.10;;;;;;;;;;5034809;28;20445;-70
2023/08/04 03:48:34;;;;;;;56.47;2.07;;;;;;;;;;5035146;28;20977;-71
2023/08/04 03:51:01;;;;;;;56.53;2.17;;;;;;;;;;5034958;28;20472;-71
2023/08/04 03:53:28;;;;;;;56.57;2.10;;;;;;;;;;5034868;28;20473;-71
2023/08/04 03:55:57;;;;;;;56.47;2.40;;;;;;;;;;5034817;28;20445;-70
2023/08/04 03:58:24;;;;;;;56.47;2.20;;;;;;;;;;5033572;28;20457;-71
2023/08/04 04:00:51;;;;;;;56.50;2.20;;;;;;;;;;5033958;28;20452;-71
2023/08/04 04:03:18;;;;;;;56.53;1.93;;;;;;;;;;5033341;28;21100;-71
2023/08/04 04:05:45;;;;;;;56.57;2.20;;;;;;;;;;5034569;28;20457;-71
2023/08/04 04:08:12;;;;;;;56.37;2.20;;;;;;;;;;5034148;28;20559;-71
2023/08/04 04:10:39;;;;;;;57.87;4.20;;;;;;;;;;5034446;28;20746;-71
2023/08/04 04:13:08;;;;;;;56.27;2.20;;;;;;;;;;5033849;28;20472;-71
2023/08/04 04:15:35;;;;;;;56.47;2.07;;;;;;;;;;5033412;28;20464;-71
2023/08/04 04:18:02;;;;;;;56.57;2.13;;;;;;;;;;5033976;28;20479;-70
2023/08/04 04:20:29;;;;;;;56.40;2.30;;;;;;;;;;5034073;28;20442;-71
2023/08/04 04:22:56;;;;;;;56.70;2.30;;;;;;;;;;5033837;28;20493;-71
2023/08/04 04:25:23;;;;;;;56.47;2.20;;;;;;;;;;5033504;28;20457;-71
2023/08/04 04:27:50;;;;;;;56.27;2.10;;;;;;;;;;5033469;28;20454;-71
2023/08/04 04:30:19;;;;;;;56.60;2.30;;;;;;;;;;5033540;28;20938;-71
2023/08/04 04:32:46;;;;;;;56.37;2.10;;;;;;;;;;5033596;28;20465;-71
2023/08/04 04:35:13;;;;;;;56.57;2.10;;;;;;;;;;5033915;28;20460;-71
2023/08/04 04:37:40;;;;;;;56.60;2.20;;;;;;;;;;5033484;28;20446;-71
2023/08/04 04:40:08;;;;;;;56.33;2.10;;;;;;;;;;5033554;28;20452;-71
2023/08/04 04:42:35;;;;;;;56.37;1.97;;;;;;;;;;5032886;28;20496;-71
2023/08/04 04:45:02;;;;;;;56.27;2.07;;;;;;;;;;5033585;28;20456;-71
2023/08/04 04:47:31;;;;;;;56.37;2.10;;;;;;;;;;5033642;28;20452;-71
2023/08/04 04:49:58;;;;;;;56.27;2.10;;;;;;;;;;5033481;28;20478;-71
2023/08/04 04:52:31;;;;;;;56.30;2.10;;;;;;;;;;5033213;28;20461;-71
2023/08/04 04:54:59;;;;;;;56.00;1.90;;;;;;;;;;5032935;28;20461;-71
2023/08/04 04:57:26;;;;;;;56.47;1.97;;;;;;;;;;5033289;28;20547;-71
2023/08/04 04:59:53;;;;;;;56.53;2.10;;;;;;;;;;5032564;28;20446;-71
2023/08/04 05:02:20;;;;;;;56.57;2.10;;;;;;;;;;5032331;28;20496;-71
2023/08/04 05:04:49;;;;;;;56.60;2.17;;;;;;;;;;5035930;28;20449;-70
2023/08/04 05:07:16;;;;;;;56.27;2.10;;;;;;;;;;5031881;28;20449;-71
2023/08/04 05:09:43;;;;;;;56.17;2.00;;;;;;;;;;5031931;28;20446;-71
2023/08/04 05:12:10;;;;;;;56.27;2.03;;;;;;;;;;5030930;28;20961;-71
2023/08/04 05:14:37;;;;;;;56.37;1.93;;;;;;;;;;5035868;28;20475;-71
2023/08/04 05:17:04;;;;;;;56.33;2.10;;;;;;;;;;5036228;28;20449;-71
2023/08/04 05:19:31;;;;;;;56.40;2.00;;;;;;;;;;5035588;28;20453;-71
2023/08/04 05:22:00;;;;;;;56.43;2.10;;;;;;;;;;5035089;28;20448;-71
2023/08/04 05:24:27;;;;;;;56.37;2.27;;;;;;;;;;5035562;28;20839;-71
2023/08/04 05:26:54;;;;;;;56.33;1.97;;;;;;;;;;5035309;28;20464;-71
2023/08/04 05:29:21;;;;;;;56.47;2.23;;;;;;;;;;5035560;28;20945;-71
2023/08/04 05:31:48;;;;;;;56.40;2.10;;;;;;;;;;5035038;28;20944;-71
2023/08/04 05:34:15;;;;;;;56.37;2.00;;;;;;;;;;5035552;28;20980;-71
2023/08/04 05:36:42;;;;;;;56.37;2.07;;;;;;;;;;5035903;28;20445;-71
2023/08/04 05:39:11;;;;;;;56.50;2.10;;;;;;;;;;5035257;28;20447;-71
2023/08/04 05:41:38;;;;;;;56.33;1.97;;;;;;;;;;5035207;28;20452;-71
2023/08/04 05:44:05;;;;;;;56.50;2.10;;;;;;;;;;5035429;28;20488;-71
2023/08/04 05:46:32;;;;;;;56.10;2.00;;;;;;;;;;5035261;28;20449;-71
2023/08/04 05:48:59;;;;;;;56.47;2.20;;;;;;;;;;5035257;28;20451;-70
2023/08/04 05:51:26;;;;;;;56.33;2.20;;;;;;;;;;5035373;28;20445;-71
2023/08/04 05:53:53;;;;;;;56.17;2.07;;;;;;;;;;5034983;28;20465;-71
2023/08/04 05:56:22;;;;;;;56.13;1.90;;;;;;;;;;5035602;28;20944;-71
2023/08/04 05:58:49;;;;;;;56.50;2.10;;;;;;;;;;5035949;28;20466;-71
2023/08/04 06:01:16;;;;;;;56.20;2.00;;;;;;;;;;5035959;28;20453;-71
2023/08/04 06:03:43;;;;;;;56.13;2.00;;;;;;;;;;5036114;28;20489;-70
2023/08/04 06:06:11;;;;;;;57.37;2.30;;;;;;;;;;5035674;28;20991;-70
2023/08/04 06:08:38;;;;;;;55.97;1.90;;;;;;;;;;5035592;28;20449;-71
2023/08/04 06:11:05;;;;;;;56.20;2.17;;;;;;;;;;5035467;28;20441;-70
2023/08/04 06:13:34;;;;;;;56.97;2.73;;;;;;;;;;5035167;28;20469;-71
2023/08/04 06:16:01;;;;;;;56.07;1.90;;;;;;;;;;5035393;28;20452;-71
2023/08/04 06:18:28;;;;;;;56.10;2.10;;;;;;;;;;5035691;28;20459;-71
2023/08/04 06:20:55;;;;;;;55.93;1.90;;;;;;;;;;5035583;28;21016;-70
2023/08/04 06:23:22;;;;;;;56.20;2.00;;;;;;;;;;5035612;28;20500;-71
2023/08/04 06:25:50;;;;;;;56.10;1.80;;;;;;;;;;5035350;28;20461;-71
2023/08/04 06:28:17;;;;;;;56.37;1.93;;;;;;;;;;5036534;28;20449;-71
2023/08/04 06:30:45;;;;;;;55.93;2.10;;;;;;;;;;5036042;28;20457;-71
2023/08/04 06:33:12;;;;;;;56.27;2.00;;;;;;;;;;5018911;28;20553;-71
2023/08/04 06:35:41;;;;;;;55.97;1.90;;;;;;;;;;5016002;28;20450;-69
2023/08/04 06:38:08;;;;;;;56.27;2.03;;;;;;;;;;5016398;28;20449;-71
2023/08/04 06:40:35;;;;;;;56.47;2.00;;;;;;;;;;5016070;28;20450;-71
2023/08/04 06:43:02;;;;;;;56.70;1.90;;;;;;;;;;5015554;28;20505;-71
2023/08/04 06:45:29;;;;;;;56.47;1.90;;;;;;;;;;5015846;28;20480;-71
2023/08/04 06:47:58;;;;;;;56.10;1.90;;;;;;;;;;5015302;28;20464;-71
2023/08/04 06:50:25;;;;;;;56.23;1.80;;;;;;;;;;5015820;28;20450;-71
2023/08/04 06:52:52;;;;;;;56.13;2.03;;;;;;;;;;5015581;28;20470;-71
2023/08/04 06:55:19;;;;;;;56.20;1.80;;;;;;;;;;5014960;28;20457;-72
2023/08/04 06:57:46;;;;;;;56.50;2.03;;;;;;;;;;5014869;28;20450;-71
2023/08/04 07:00:14;;;;;;;56.50;2.00;;;;;;;;;;5014596;28;20449;-71
2023/08/04 07:02:42;;;;;;;56.20;1.90;;;;;;;;;;5014039;28;20497;-71
2023/08/04 07:05:10;;;;;;;56.53;2.40;;;;;;;;;;5014299;28;20621;-71
2023/08/04 07:07:37;;;;;;;56.23;1.80;;;;;;;;;;5013724;28;20449;-72
2023/08/04 07:10:04;;;;;;;56.20;1.90;;;;;;;;;;5013663;28;20450;-71
2023/08/04 07:12:32;;;;;;;56.97;2.40;;;;;;;;;;5012962;28;20480;-71
2023/08/04 07:14:59;;;;;;;56.20;1.60;;;;;;;;;;5013328;28;20938;-71
2023/08/04 07:17:26;;;;;;;56.03;1.60;;;;;;;;;;5013490;28;20442;-72
2023/08/04 07:19:53;;;;;;;56.37;1.83;;;;;;;;;;5013672;28;20446;-71
2023/08/04 07:22:21;;;;;;;56.47;2.00;;;;;;;;;;5013076;28;20466;-72
2023/08/04 07:24:53;;;;;;;55.97;1.77;;;;;;;;;;5013022;28;20486;-70
2023/08/04 07:27:20;;;;;;;56.50;1.70;;;;;;;;;;5013197;28;20458;-72
2023/08/04 07:29:48;;;;;;;55.93;1.80;;;;;;;;;;5013152;28;20446;-71
2023/08/04 07:32:15;;;;;;;56.13;1.80;;;;;;;;;;5012635;28;21016;-72
2023/08/04 07:34:42;;;;;;;55.97;1.70;;;;;;;;;;5014310;28;20446;-72
2023/08/04 07:37:09;;;;;;;56.60;1.90;;;;;;;;;;5012417;28;20450;-72
2023/08/04 07:39:38;;;;;;;59.57;3.40;;;;;;;;;;5013189;28;20442;-71
2023/08/04 07:42:05;;;;;;;55.97;1.90;;;;;;;;;;5012616;28;20464;-72
2023/08/04 07:44:34;;;;;;;55.93;1.70;;;;;;;;;;5014359;28;20489;-72
2023/08/04 07:47:01;;;;;;;56.00;1.80;;;;;;;;;;5013886;28;20461;-72
2023/08/04 07:49:28;;;;;;;56.00;1.80;;;;;;;;;;5014132;28;21030;-72
2023/08/04 07:51:56;;;;;;;55.97;1.70;;;;;;;;;;5013229;28;20450;-72
2023/08/04 07:54:23;;;;;;;55.87;1.80;;;;;;;;;;5013186;28;20438;-72
2023/08/04 07:56:51;;;;;;;56.23;2.23;;;;;;;;;;5012802;28;20934;-71
2023/08/04 07:59:18;;;;;;;56.30;1.80;;;;;;;;;;5013422;28;20469;-71
2023/08/04 08:01:45;;;;;;;55.77;1.70;;;;;;;;;;5012416;28;20532;-72
2023/08/04 08:04:12;;;;;;;56.70;2.00;;;;;;;;;;5013324;28;20498;-72
2023/08/04 08:06:39;;;;;;;55.97;1.67;;;;;;;;;;5012964;28;20545;-72
2023/08/04 08:09:07;;;;;;;55.83;1.73;;;;;;;;;;5013153;28;20920;-70
2023/08/04 08:11:34;;;;;;;56.30;2.23;;;;;;;;;;5013465;28;20469;-72
2023/08/04 08:14:02;;;;;;;55.93;1.70;;;;;;;;;;5013211;28;20473;-72
2023/08/04 08:16:30;;;;;;;56.87;2.20;;;;;;;;;;5013761;28;20450;-70
2023/08/04 08:18:57;;;;;;;56.50;2.00;;;;;;;;;;5013338;28;20456;-70
2023/08/04 08:21:24;;;;;;;56.30;2.00;;;;;;;;;;5013601;28;20733;-70
2023/08/04 08:23:51;;;;;;;56.10;2.20;;;;;;;;;;5013309;28;20494;-71
2023/08/04 08:26:18;;;;;;;56.37;1.90;;;;;;;;;;5013335;28;20470;-72
2023/08/04 08:28:45;;;;;;;55.97;1.70;;;;;;;;;;5013364;28;20946;-72
2023/08/04 08:31:14;;;;;;;55.90;2.07;;;;;;;;;;5013526;28;20450;-68
2023/08/04 08:33:41;;;;;;;56.30;1.80;;;;;;;;;;5013077;28;20466;-70
2023/08/04 08:36:08;;;;;;;56.17;1.60;;;;;;;;;;5013239;28;20453;-70
2023/08/04 08:38:35;;;;;;;55.90;1.70;;;;;;;;;;5013062;28;20461;-70
2023/08/04 08:41:03;;;;;;;55.80;2.00;;;;;;;;;;5013426;28;20454;-70
2023/08/04 08:43:30;;;;;;;56.17;1.70;;;;;;;;;;5012620;28;20540;-70
2023/08/04 08:45:59;;;;;;;56.20;1.70;;;;;;;;;;5013321;28;20454;-70
2023/08/04 08:48:28;;;;;;;56.00;1.50;;;;;;;;;;5013287;28;20946;-70
2023/08/04 08:51:00;;;;;;;55.97;1.57;;;;;;;;;;5012951;28;20468;-72
2023/08/04 08:53:31;;;;;;;56.17;1.63;;;;;;;;;;5012915;28;20814;-72
2023/08/04 08:56:00;;;;;;;56.20;1.70;;;;;;;;;;5013047;28;20476;-73
2023/08/04 08:58:29;;;;;;;56.30;1.67;;;;;;;;;;5012886;28;20529;-73
2023/08/04 09:00:56;;;;;;;56.37;1.73;;;;;;;;;;5013001;28;20454;-73
2023/08/04 09:03:23;;;;;;;55.90;1.70;;;;;;;;;;5012548;28;20492;-72
2023/08/04 09:05:52;;;;;;;56.60;1.97;;;;;;;;;;5013071;28;20817;-73
2023/08/04 09:08:19;;;;;;;55.67;1.50;;;;;;;;;;5013248;28;20511;-73
2023/08/04 09:10:47;;;;;;;56.43;1.70;;;;;;;;;;5012751;28;20964;-72
2023/08/04 09:13:14;;;;;;;56.00;1.57;;;;;;;;;;5012679;28;20478;-72
2023/08/04 09:15:47;;;;;;;55.67;1.80;;;;;;;;;;5012712;28;20461;-72
2023/08/04 09:18:25;;;;;;;56.10;1.80;;;;;;;;;;5013095;28;20619;-70
2023/08/04 09:21:00;;;;;;;55.87;1.60;;;;;;;;;;5012668;28;20450;-70
2023/08/04 09:23:27;;;;;;;55.80;1.43;;;;;;;;;;5012887;28;20493;-70
2023/08/04 09:25:54;;;;;;;55.17;1.53;;;;;;;;;;5012850;28;20462;-71
2023/08/04 09:28:21;;;;;;;55.70;1.70;;;;;;;;;;5013257;28;20454;-70
2023/08/04 09:31:01;;;;;;;55.87;1.70;;;;;;;;;;5012778;28;20438;-71
2023/08/04 09:33:28;;;;;;;56.07;2.30;;;;;;;;;;5012760;28;20470;-71
2023/08/04 09:36:03;;;;;;;56.57;1.70;;;;;;;;;;5012932;28;20545;-71
2023/08/04 09:38:30;;;;;;;55.97;1.60;;;;;;;;;;5012894;28;20504;-71
2023/08/04 09:41:00;;;;;;;55.87;1.80;;;;;;;;;;5012747;28;20821;-71
2023/08/04 09:43:27;;;;;;;55.97;1.63;;;;;;;;;;5013275;28;20481;-71
2023/08/04 09:45:56;;;;;;;56.10;1.70;;;;;;;;;;5012906;28;20450;-71
2023/08/04 09:48:26;;;;;;;56.40;1.80;;;;;;;;;;5012406;28;20458;-71
2023/08/04 09:51:05;;;;;;;56.50;1.77;;;;;;;;;;5012725;28;21000;-71
2023/08/04 09:53:35;;;;;;;56.00;1.80;;;;;;;;;;5012304;28;20458;-71
2023/08/04 09:56:02;;;;;;;55.77;1.80;;;;;;;;;;5012605;28;20453;-71
2023/08/04 09:58:30;;;;;;;55.87;1.60;;;;;;;;;;5012983;28;20446;-71
2023/08/04 10:00:57;;;;;;;56.30;1.87;;;;;;;;;;5014906;28;20833;-70
2023/08/04 10:03:24;;;;;;;56.27;1.60;;;;;;;;;;5015336;28;20465;-71
2023/08/04 10:05:52;;;;;;;55.67;1.60;;;;;;;;;;5015861;28;20460;-71
2023/08/04 10:08:20;;;;;;;56.40;1.63;;;;;;;;;;5016317;28;20458;-72
2023/08/04 10:10:49;;;;;;;55.87;1.47;;;;;;;;;;5016298;28;20829;-71
2023/08/04 10:13:18;;;;;;;56.57;1.67;;;;;;;;;;5015642;28;20561;-71
2023/08/04 10:15:46;;;;;;;55.67;1.70;;;;;;;;;;5015463;28;20822;-71
2023/08/04 10:18:13;;;;;;;55.80;1.50;;;;;;;;;;5015113;28;20450;-71
2023/08/04 10:20:40;;;;;;;55.67;1.60;;;;;;;;;;5014978;28;20446;-71
2023/08/04 10:23:07;;;;;;;56.20;1.77;;;;;;;;;;5014586;28;20474;-71
2023/08/04 10:25:34;;;;;;;56.20;2.00;;;;;;;;;;5014241;28;20498;-72
2023/08/04 10:28:04;;;;;;;56.20;1.73;;;;;;;;;;5014291;28;20472;-71
2023/08/04 10:30:31;;;;;;;57.90;1.80;;;;;;;;;;5014456;28;20539;-70
2023/08/04 10:33:09;;;;;;;55.67;1.50;;;;;;;;;;5014317;28;20470;-71
2023/08/04 10:35:56;;;;;;;55.80;1.50;;;;;;;;;;5014785;28;20453;-71
2023/08/04 10:38:24;;;;;;;55.80;1.60;;;;;;;;;;5014386;28;20450;-71
2023/08/04 10:41:05;;;;;;;55.90;1.70;;;;;;;;;;5014450;28;20454;-71
2023/08/04 10:43:38;;;;;;;56.00;1.47;;;;;;;;;;5013821;28;20472;-70
2023/08/04 10:46:10;;;;;;;55.63;1.60;;;;;;;;;;5014412;28;20506;-71
2023/08/04 10:48:39;;;;;;;55.77;1.73;;;;;;;;;;5014138;28;20552;-71
2023/08/04 10:51:07;;;;;;;55.63;1.40;;;;;;;;;;5014308;28;20480;-70
2023/08/04 10:53:35;;;;;;;55.43;1.50;;;;;;;;;;5013922;28;20468;-70
2023/08/04 10:56:02;;;;;;;55.70;1.50;;;;;;;;;;5013915;28;20453;-71
2023/08/04 10:58:29;;;;;;;55.77;1.50;;;;;;;;;;5014549;28;20446;-71
2023/08/04 11:00:58;;;;;;;56.00;1.53;;;;;;;;;;5014299;28;20442;-70
2023/08/04 11:03:27;;;;;;;55.97;1.70;;;;;;;;;;5013763;28;20477;-70
2023/08/04 11:05:55;;;;;;;55.93;1.70;;;;;;;;;;5013815;28;20856;-70
2023/08/04 11:08:22;;;;;;;55.67;1.57;;;;;;;;;;5013671;28;20458;-71
2023/08/04 11:10:49;;;;;;;56.10;1.60;;;;;;;;;;5013821;28;20451;-71
2023/08/04 11:13:18;;;;;;;55.53;1.40;;;;;;;;;;5013310;28;20473;-71
2023/08/04 11:15:45;;;;;;;56.20;1.50;;;;;;;;;;5013850;28;20442;-71
2023/08/04 11:18:14;;;;;;;56.00;1.60;;;;;;;;;;5013474;28;20842;-71
2023/08/04 11:20:42;;;;;;;56.40;1.60;;;;;;;;;;5013423;28;20450;-71
2023/08/04 11:23:10;;;;;;;56.27;1.67;;;;;;;;;;5013265;28;20472;-71
2023/08/04 11:25:37;;;;;;;56.27;1.67;;;;;;;;;;5013114;28;20490;-70
2023/08/04 11:28:04;;;;;;;56.13;1.70;;;;;;;;;;5013372;28;20450;-71
2023/08/04 11:30:33;;;;;;;56.07;1.70;;;;;;;;;;5013284;28;20446;-71
2023/08/04 11:33:00;;;;;;;55.60;1.73;;;;;;;;;;5012802;28;20468;-71
2023/08/04 11:35:30;;;;;;;55.93;1.70;;;;;;;;;;5012888;28;20442;-69
2023/08/04 11:37:57;;;;;;;55.83;1.70;;;;;;;;;;5013122;28;20504;-69
2023/08/04 11:40:25;;;;;;;56.77;2.07;;;;;;;;;;5012914;28;21056;-71
2023/08/04 11:42:52;;;;;;;56.07;1.97;;;;;;;;;;5012474;28;20470;-71
2023/08/04 11:45:19;;;;;;;56.37;2.20;;;;;;;;;;5012717;28;20561;-71
2023/08/04 11:47:46;;;;;;;55.97;1.60;;;;;;;;;;5012839;28;20448;-70
2023/08/04 11:50:13;;;;;;;56.30;1.90;;;;;;;;;;5012814;28;20446;-71
2023/08/04 11:52:43;;;;;;;56.17;1.93;;;;;;;;;;5012765;28;20474;-71
2023/08/04 11:55:10;;;;;;;56.07;1.80;;;;;;;;;;5013082;28;20958;-71
2023/08/04 11:57:37;;;;;;;56.07;1.70;;;;;;;;;;5013201;28;20450;-71
2023/08/04 12:00:04;;;;;;;55.97;1.80;;;;;;;;;;5012819;28;20442;-70
2023/08/04 12:02:31;;;;;;;55.83;1.67;;;;;;;;;;5012466;28;20872;-72
2023/08/04 12:05:08;;;;;;;55.97;1.70;;;;;;;;;;5012602;28;21039;-71
2023/08/04 12:07:35;;;;;;;59.43;1.80;;;;;;;;;;5012939;28;20445;-72
2023/08/04 12:10:05;;;;;;;56.07;1.90;;;;;;;;;;5012786;28;20450;-70
2023/08/04 12:12:36;;;;;;;56.40;1.90;;;;;;;;;;5012029;28;20506;-70
2023/08/04 12:15:04;;;;;;;56.07;1.90;;;;;;;;;;5011928;28;20450;-69
2023/08/04 12:17:37;;;;;;;56.80;2.20;;;;;;;;;;5012318;28;20508;-70
2023/08/04 12:20:05;;;;;;;56.40;1.80;;;;;;;;;;5012166;28;20454;-71
2023/08/04 12:22:35;;;;;;;56.20;1.80;;;;;;;;;;5011156;28;20470;-70
2023/08/04 12:25:03;;;;;;;56.37;1.67;;;;;;;;;;5011703;28;20493;-70
2023/08/04 12:27:31;;;;;;;56.17;1.80;;;;;;;;;;5012210;28;20454;-71
2023/08/04 12:29:58;;;;;;;56.17;1.77;;;;;;;;;;5012132;28;20542;-71
2023/08/04 12:32:26;;;;;;;56.50;1.90;;;;;;;;;;5011777;28;20847;-69
2023/08/04 12:34:53;;;;;;;56.10;1.80;;;;;;;;;;5011844;28;20875;-70
2023/08/04 12:37:20;;;;;;;56.20;1.83;;;;;;;;;;5011728;28;20445;-71
2023/08/04 12:39:47;;;;;;;56.10;2.17;;;;;;;;;;5011670;28;20449;-70
2023/08/04 12:42:16;;;;;;;56.47;1.80;;;;;;;;;;5011245;28;20460;-71
2023/08/04 12:44:43;;;;;;;56.17;1.80;;;;;;;;;;5011688;28;20860;-71
2023/08/04 12:47:10;;;;;;;56.20;1.80;;;;;;;;;;5011708;28;20450;-71
2023/08/04 12:49:37;;;;;;;56.13;1.80;;;;;;;;;;5011673;28;20592;-69
2023/08/04 12:52:05;;;;;;;56.10;1.70;;;;;;;;;;5011397;28;20454;-70
2023/08/04 12:54:32;;;;;;;56.27;1.70;;;;;;;;;;5011382;28;20482;-69
2023/08/04 12:56:59;;;;;;;57.17;3.40;;;;;;;;;;5011372;28;20460;-69
2023/08/04 12:59:27;;;;;;;55.77;1.80;;;;;;;;;;5011353;28;20449;-70
2023/08/04 13:01:55;;;;;;;56.07;1.70;;;;;;;;;;5011410;28;20552;-72
2023/08/04 13:04:22;;;;;;;55.97;1.57;;;;;;;;;;5011187;28;20454;-70
2023/08/04 13:06:50;;;;;;;56.07;1.70;;;;;;;;;;5011291;28;20460;-70
2023/08/04 13:09:17;;;;;;;56.30;1.63;;;;;;;;;;5011286;28;20470;-71
2023/08/04 13:11:44;;;;;;;56.30;1.80;;;;;;;;;;5011384;28;20450;-70
2023/08/04 13:14:11;;;;;;;55.83;1.60;;;;;;;;;;5011139;28;20466;-71
2023/08/04 13:16:40;;;;;;;56.07;1.60;;;;;;;;;;5011317;28;20465;-71
2023/08/04 13:19:07;;;;;;;56.03;1.80;;;;;;;;;;5011393;28;20537;-71
2023/08/04 13:21:35;;;;;;;55.90;1.63;;;;;;;;;;5011208;28;20454;-71
2023/08/04 13:24:02;;;;;;;55.80;1.97;;;;;;;;;;5011196;28;21004;-71
2023/08/04 13:26:29;;;;;;;55.93;1.57;;;;;;;;;;5010831;28;20494;-71
2023/08/04 13:28:56;;;;;;;55.57;1.50;;;;;;;;;;5009824;28;20461;-70
2023/08/04 13:31:24;;;;;;;55.60;1.50;;;;;;;;;;5009535;28;20480;-70
2023/08/04 13:33:52;;;;;;;55.93;1.40;;;;;;;;;;5010498;28;20474;-71
2023/08/04 13:36:19;;;;;;;55.63;1.40;;;;;;;;;;5013827;28;20449;-71
2023/08/04 13:38:47;;;;;;;55.90;1.60;;;;;;;;;;5014305;28;20508;-71
2023/08/04 13:41:14;;;;;;;55.57;1.93;;;;;;;;;;5013835;28;20446;-71
2023/08/04 13:43:41;;;;;;;55.80;1.80;;;;;;;;;;5014669;28;20465;-71
2023/08/04 13:46:08;;;;;;;56.07;1.60;;;;;;;;;;5014650;28;20973;-71
2023/08/04 13:48:36;;;;;;;56.07;1.77;;;;;;;;;;5014827;28;20450;-71
2023/08/04 13:51:04;;;;;;;55.07;1.60;;;;;;;;;;5014714;28;20454;-71
2023/08/04 13:53:31;;;;;;;55.57;1.50;;;;;;;;;;5014435;28;20549;-71
2023/08/04 13:56:01;;;;;;;56.17;1.70;;;;;;;;;;5014768;28;20472;-71
2023/08/04 13:58:29;;;;;;;56.10;1.80;;;;;;;;;;5014679;28;20827;-70
2023/08/04 14:00:59;;;;;;;55.87;1.80;;;;;;;;;;5014549;28;20454;-70
2023/08/04 14:03:26;;;;;;;55.87;1.63;;;;;;;;;;5014120;28;20974;-73
2023/08/04 14:05:57;;;;;;;56.27;1.60;;;;;;;;;;5014535;28;20493;-70
2023/08/04 14:08:25;;;;;;;55.30;1.57;;;;;;;;;;5014882;28;20450;-70
2023/08/04 14:10:52;;;;;;;56.30;1.60;;;;;;;;;;5014443;28;20446;-71
2023/08/04 14:13:20;;;;;;;55.93;1.83;;;;;;;;;;5014251;28;20470;-70
2023/08/04 14:15:47;;;;;;;55.93;1.50;;;;;;;;;;5014416;28;20457;-70
2023/08/04 14:18:15;;;;;;;56.37;1.73;;;;;;;;;;5014500;28;20485;-70
2023/08/04 14:20:42;;;;;;;56.37;1.80;;;;;;;;;;5014264;28;20454;-70
2023/08/04 14:23:09;;;;;;;56.10;1.67;;;;;;;;;;5014017;28;20470;-69
2023/08/04 14:25:37;;;;;;;55.67;1.60;;;;;;;;;;5013984;28;20486;-69
2023/08/04 14:28:05;;;;;;;56.37;1.73;;;;;;;;;;5014203;28;20484;-70
2023/08/04 14:30:32;;;;;;;56.07;2.00;;;;;;;;;;5014440;28;20450;-71
2023/08/04 14:32:59;;;;;;;56.10;1.80;;;;;;;;;;5013984;28;20837;-70
2023/08/04 14:35:26;;;;;;;56.23;1.70;;;;;;;;;;5014041;28;20929;-72
2023/08/04 14:37:53;;;;;;;56.13;1.60;;;;;;;;;;5014148;28;20450;-70